Terminal Aerodrome Forecast
Issued by NWS Lubbock, TX

Home | Current Version | Previous Version | Text Only | Print | Product List | Glossary On
Versions: 1 2 3 4 5 6 7 8 9 10 11 12 13
000
FTUS44 KLUB 301724
TAFLBB
TAF
KLBB 301724Z 3018/3118 11010KT P6SM OVC060
     FM302300 12009KT P6SM OVC030
     FM310300 12009KT 5SM -RA BR OVC015
     FM311100 12010KT 2SM -RA BR OVC007=

USA.gov is the U.S. government's official web portal to all federal, state and local government web resources and services.